createdAt,value
2022-10-16T00:04:30.116Z,60
2022-10-16T00:10:10.366Z,56
2022-10-16T00:15:50.574Z,68
2022-10-16T00:21:30.935Z,68
2022-10-16T00:27:11.351Z,58
2022-10-16T00:32:51.659Z,66
2022-10-16T00:38:32.156Z,76
2022-10-16T00:49:52.750Z,62
2022-10-16T00:55:33.115Z,72
2022-10-16T01:01:14.633Z,64
2022-10-16T01:06:55.864Z,62
2022-10-16T01:12:48.715Z,64
2022-10-16T01:18:29.124Z,70
2022-10-16T01:24:09.501Z,58
2022-10-16T01:29:49.932Z,70
2022-10-16T01:35:30.112Z,60
2022-10-16T01:41:10.442Z,68
2022-10-16T01:46:51.016Z,68
2022-10-16T01:52:31.449Z,62
2022-10-16T01:58:14.275Z,62
2022-10-16T02:03:54.607Z,62
2022-10-16T02:09:34.925Z,70
2022-10-16T02:15:15.016Z,72
2022-10-16T02:20:55.618Z,64
2022-10-16T02:26:35.967Z,64
2022-10-16T02:32:16.012Z,74
2022-10-16T02:37:58.803Z,66
2022-10-16T02:43:39.567Z,60
2022-10-16T02:49:22.811Z,60
2022-10-16T02:55:03.256Z,64
2022-10-16T03:00:44.148Z,72
2022-10-16T03:06:26.888Z,70
2022-10-16T03:12:07.037Z,66
2022-10-16T03:17:47.155Z,72
2022-10-16T03:29:11.822Z,64
2022-10-16T03:34:52.043Z,74
2022-10-16T03:40:32.153Z,62
2022-10-16T03:46:12.453Z,66
2022-10-16T03:51:52.653Z,70
2022-10-16T03:57:32.994Z,60
2022-10-16T04:03:13.200Z,60
2022-10-16T04:08:53.209Z,58
2022-10-16T04:14:33.301Z,68
2022-10-16T04:20:13.719Z,66
2022-10-16T04:25:53.963Z,68
2022-10-16T04:31:34.029Z,64
2022-10-16T04:37:14.170Z,62
2022-10-16T04:42:54.380Z,64
2022-10-16T04:48:34.594Z,62
2022-10-16T04:54:14.613Z,58
2022-10-16T04:59:54.670Z,60
2022-10-16T05:05:34.873Z,72
2022-10-16T05:11:15.280Z,74
2022-10-16T05:16:55.520Z,58
2022-10-16T05:22:35.841Z,70
2022-10-16T05:28:16.281Z,54
2022-10-16T05:33:56.460Z,72
2022-10-16T05:39:36.529Z,72
2022-10-16T05:45:16.687Z,68
2022-10-16T05:50:57.066Z,72
2022-10-16T05:56:37.425Z,66
2022-10-16T06:02:18.688Z,68
2022-10-16T06:07:59.069Z,60
2022-10-16T06:13:39.251Z,58
2022-10-16T06:19:19.427Z,64
2022-10-16T06:24:59.732Z,80
2022-10-16T06:30:40.105Z,70
2022-10-16T06:36:21.246Z,64
2022-10-16T06:42:01.602Z,70
2022-10-16T06:47:41.931Z,60
2022-10-16T06:53:22.139Z,66
2022-10-16T06:59:01.979Z,58
2022-10-16T07:04:42.420Z,60
2022-10-16T07:10:25.506Z,72
2022-10-16T07:16:06.052Z,70
2022-10-16T07:21:48.916Z,58
2022-10-16T07:27:29.656Z,60
2022-10-16T07:33:10.124Z,72
2022-10-16T07:39:00.886Z,60
2022-10-16T07:44:42.041Z,70
2022-10-16T07:50:23.060Z,74
2022-10-16T07:56:03.875Z,76
2022-10-16T08:01:45.007Z,74
2022-10-16T08:07:28.242Z,72
2022-10-16T08:13:09.366Z,66
2022-10-16T08:18:49.764Z,76
2022-10-16T08:24:30.259Z,70
2022-10-16T08:30:10.551Z,70
2022-10-16T08:35:50.757Z,66
2022-10-16T08:41:30.789Z,72
2022-10-16T08:47:11.013Z,70
2022-10-16T08:52:51.416Z,20
2022-10-16T08:58:32.104Z,18
2022-10-16T09:04:12.185Z,32
2022-10-16T09:09:52.511Z,52
2022-10-16T09:15:32.754Z,20
2022-10-16T09:21:13.093Z,28
2022-10-16T09:26:53.231Z,22
2022-10-16T09:32:33.822Z,14
2022-10-16T09:38:13.762Z,4
2022-10-16T09:43:53.562Z,4
2022-10-16T09:49:36.327Z,0
2022-10-16T09:55:16.196Z,0
2022-10-16T10:00:55.783Z,0
2022-10-16T10:06:36.624Z,0
2022-10-16T10:12:27.834Z,0
2022-10-16T10:18:08.409Z,0
2022-10-16T10:23:48.206Z,74
2022-10-16T10:29:28.406Z,2
2022-10-16T10:35:16.194Z,26
2022-10-16T10:40:56.219Z,76
2022-10-16T10:46:35.516Z,68
2022-10-16T10:52:16.308Z,0
2022-10-16T11:03:01.640Z,70
2022-10-16T11:08:41.679Z,0
2022-10-16T11:14:22.150Z,0
2022-10-16T11:20:21.008Z,24
2022-10-16T11:26:04.198Z,0
2022-10-16T11:31:45.042Z,14
2022-10-16T11:37:30.144Z,0
2022-10-16T11:48:50.898Z,14
2022-10-16T11:54:31.458Z,40
2022-10-16T12:00:14.975Z,0
2022-10-16T12:05:55.171Z,20
2022-10-16T12:11:35.027Z,0
2022-10-16T12:17:15.174Z,2
2022-10-16T12:22:55.060Z,18
2022-10-16T12:28:35.679Z,24
2022-10-16T12:34:16.472Z,14
2022-10-16T12:39:56.486Z,0
2022-10-16T12:45:37.062Z,0
2022-10-16T12:51:20.570Z,0
2022-10-16T12:57:00.860Z,0
2022-10-16T13:02:40.694Z,0
2022-10-16T13:08:21.805Z,0
2022-10-16T13:14:02.515Z,0
2022-10-16T13:20:15.925Z,28
2022-10-16T13:25:59.994Z,32
2022-10-16T13:31:40.212Z,84
2022-10-16T13:37:21.440Z,88
2022-10-16T13:43:04.685Z,0
2022-10-16T13:48:45.386Z,0
2022-10-16T13:54:26.303Z,16
2022-10-16T14:05:09.346Z,86
2022-10-16T14:10:49.645Z,82
2022-10-16T14:16:29.970Z,78
2022-10-16T14:22:10.203Z,76
2022-10-16T14:27:51.504Z,60
2022-10-16T14:33:32.080Z,70
2022-10-16T14:39:15.391Z,70
2022-10-16T14:44:55.600Z,78
2022-10-16T14:50:35.715Z,72
2022-10-16T14:56:16.394Z,78
2022-10-16T15:01:56.943Z,80
2022-10-16T15:07:37.359Z,74
2022-10-16T15:13:17.775Z,82
2022-10-16T15:18:58.504Z,74
2022-10-16T15:24:39.972Z,80
2022-10-16T15:30:21.376Z,70
2022-10-16T15:36:01.528Z,66
2022-10-16T15:52:24.976Z,119
2022-10-16T16:03:08.718Z,120
2022-10-16T16:08:49.969Z,60
2022-10-16T16:14:31.235Z,76
2022-10-16T16:20:12.889Z,66
2022-10-16T16:25:53.420Z,98
2022-10-16T16:31:33.885Z,70
2022-10-16T16:37:14.382Z,74
2022-10-16T16:42:54.353Z,66
2022-10-16T16:48:34.974Z,78
2022-10-16T16:54:15.370Z,66
2022-10-16T16:59:55.913Z,72
2022-10-16T17:05:36.238Z,80
2022-10-16T17:11:16.730Z,64
2022-10-16T17:16:57.309Z,66
2022-10-16T17:22:40.752Z,74
2022-10-16T17:28:25.631Z,76
2022-10-16T17:34:09.536Z,66
2022-10-16T17:39:55.378Z,74
2022-10-16T17:45:40.733Z,76
2022-10-16T17:51:26.110Z,64
2022-10-16T17:57:09.153Z,74
2022-10-16T18:02:55.088Z,64
2022-10-16T18:08:35.861Z,78
2022-10-16T18:14:15.824Z,62
2022-10-16T18:20:02.319Z,78
2022-10-16T18:25:45.888Z,74
2022-10-16T18:31:26.005Z,76
2022-10-16T18:37:14.584Z,74
2022-10-16T18:43:00.088Z,74
2022-10-16T18:48:48.864Z,66
2022-10-16T18:54:28.904Z,64
2022-10-16T19:00:08.934Z,72
2022-10-16T19:05:59.987Z,74
2022-10-16T19:11:46.424Z,64
2022-10-16T19:17:31.492Z,72
2022-10-16T19:23:14.809Z,64
2022-10-16T19:28:57.480Z,74
2022-10-16T19:34:38.031Z,78
2022-10-16T19:40:21.430Z,66
2022-10-16T19:46:06.489Z,66
2022-10-16T19:51:52.411Z,76
2022-10-16T19:57:38.476Z,76
2022-10-16T20:03:18.731Z,72
2022-10-16T20:09:07.132Z,68
2022-10-16T20:14:47.519Z,66
2022-10-16T20:20:27.521Z,66
2022-10-16T20:26:07.595Z,72
2022-10-16T20:31:48.081Z,60
2022-10-16T20:37:30.342Z,64
2022-10-16T20:43:13.720Z,66
2022-10-16T20:48:53.985Z,64
2022-10-16T20:54:35.383Z,68
2022-10-16T21:00:15.382Z,72
2022-10-16T21:06:00.548Z,64
2022-10-16T21:11:40.689Z,84
2022-10-16T21:17:23.018Z,62
2022-10-16T21:23:03.005Z,70
2022-10-16T21:28:46.591Z,60
2022-10-16T21:34:30.143Z,76
2022-10-16T21:40:09.957Z,60
2022-10-16T21:45:49.929Z,72
2022-10-16T21:51:31.007Z,76
2022-10-16T21:57:11.178Z,72
2022-10-16T22:02:51.892Z,76
2022-10-16T22:08:32.826Z,64
2022-10-16T22:14:13.943Z,72
2022-10-16T22:19:54.078Z,72
2022-10-16T22:25:34.317Z,66
2022-10-16T22:31:14.988Z,74
2022-10-16T22:36:55.145Z,64
2022-10-16T22:42:36.086Z,60
2022-10-16T22:48:16.499Z,66
2022-10-16T22:53:56.733Z,72
2022-10-16T22:59:36.997Z,62
2022-10-16T23:05:17.039Z,78
2022-10-16T23:10:58.210Z,66
2022-10-16T23:16:38.481Z,72
2022-10-16T23:22:22.012Z,60
2022-10-16T23:28:02.317Z,72
2022-10-16T23:33:42.779Z,60
2022-10-16T23:39:23.248Z,68
2022-10-16T23:45:03.339Z,64
2022-10-16T23:50:43.504Z,60
2022-10-16T23:56:24.710Z,72
